Terminal Aerodrome Forecast
Issued by NWS Oklahoma City, OK

Home | Current Version | Previous Version | Text Only | Print | Product List | Glossary On
Versions: 1 2 3 4 5 6 7 8 9 10 11 12 13 14
000
FTUS44 KOUN 261120
TAFOUN
TAF
KOUN 261120Z 2612/2712 18014KT P6SM BKN013 BKN035
     FM261500 17015G22KT P6SM BKN019
     FM261800 18016G24KT P6SM BKN035
      TEMPO 2618/2622 4SM +TSRA BKN020CB OVC040
     FM270600 17012G20KT P6SM OVC020=

USA.gov is the U.S. government's official web portal to all federal, state and local government web resources and services.